VVDN/DAD METAR and TAF weather

Enter ICAO airport designator
Station Type Date Time Source
VVDN METAR 2022/06/29 00:00 UTC NOAA

VVDN 290000Z 20002KT 9999 FEW017 30/24 Q1001 NOSIG


Station Type Date Time Source
VVDN Decoded METAR 2022/06/29 00:00 UTC NOAA

Da Nang, Vietnam (VVDN) 16-02N 108-11E 7M
Jun 28, 2022 - 08:00 PM EDT / 2022.06.29 0000 UTC
Wind: from the SSW (200 degrees) at 2 MPH (2 KT):0
Visibility: greater than 7 mile(s):0
Sky conditions: mostly clear
Temperature: 86 F (30 C)
Heat index: 95.0 F (35.0 C):1
Dew Point: 75 F (24 C)
Relative Humidity: 70%
Pressure (altimeter): 29.56 in. Hg (1001 hPa)
ob: VVDN 290000Z 20002KT 9999 FEW017 30/24 Q1001 NOSIG
cycle: 0

Station Type Date Time Source
VVDN TAF 2022/06/28 18:36 UTC NOAA

TAF VVDN 281700Z 2818/2918 20005KT 9999 FEW017
BECMG 2905/2906 09010KT
TEMPO 2908/2912 TS SCT015 FEW017CB
BECMG 2912/2913 20005KT

Example: see airport list